Time;durP1;ratioP1;P1;durP2;ratioP2;P2;SDS_P1;SDS_P2;PMS_P1;PMS_P2;Temp;Humidity;BMP_temperature;BMP_pressure;BME280_temperature;BME280_humidity;BME280_pressure;Samples;Min_cycle;Max_cycle;Signal;HPM_P1;HPM_P2
2022/03/14 00:00:47;;;;;;;25.65;15.18;;;7.50;51.90;;;;;;5069819;28;20211;-85
2022/03/14 00:03:15;;;;;;;17.98;13.35;;;7.50;52.00;;;;;;5069175;28;20199;-86
2022/03/14 00:05:42;;;;;;;18.65;13.80;;;7.60;51.70;;;;;;5069207;28;20209;-85
2022/03/14 00:08:09;;;;;;;19.88;15.18;;;7.60;51.60;;;;;;5069013;28;20237;-87
2022/03/14 00:10:36;;;;;;;29.55;12.93;;;7.60;51.80;;;;;;5069256;28;20756;-86
2022/03/14 00:13:07;;;;;;;17.58;12.98;;;7.70;51.70;;;;;;5068795;28;20223;-87
2022/03/14 00:15:34;;;;;;;21.05;13.90;;;7.60;51.70;;;;;;5069243;28;20200;-87
2022/03/14 00:18:03;;;;;;;19.40;14.07;;;7.60;50.20;;;;;;5069315;28;20547;-85
2022/03/14 00:20:31;;;;;;;16.73;13.77;;;7.60;51.10;;;;;;5068217;28;20287;-86
2022/03/14 00:22:59;;;;;;;19.00;13.73;;;7.70;51.90;;;;;;5069711;28;20192;-86
2022/03/14 00:25:28;;;;;;;20.60;14.38;;;7.60;51.50;;;;;;5068938;28;20200;-86
2022/03/14 00:27:55;;;;;;;20.98;14.23;;;7.70;51.50;;;;;;5069229;28;20210;-86
2022/03/14 00:30:23;;;;;;;20.10;13.75;;;7.70;51.30;;;;;;5069143;28;20211;-86
2022/03/14 00:32:50;;;;;;;20.67;14.10;;;7.70;62.80;;;;;;5069261;28;20954;-86
2022/03/14 00:35:17;;;;;;;17.50;12.77;;;7.50;52.30;;;;;;5068132;28;20311;-87
2022/03/14 00:37:44;;;;;;;16.88;13.20;;;7.50;52.00;;;;;;5069087;28;20209;-86
2022/03/14 00:40:12;;;;;;;16.30;13.70;;;7.40;52.30;;;;;;5068797;28;20607;-86
2022/03/14 00:42:40;;;;;;;20.10;13.32;;;7.30;52.60;;;;;;5060120;28;20211;-86
2022/03/14 00:45:07;;;;;;;17.73;13.25;;;7.30;52.60;;;;;;5069223;28;20203;-86
2022/03/14 00:47:36;;;;;;;16.73;12.57;;;7.30;52.20;;;;;;5068497;28;21463;-87
2022/03/14 00:50:03;;;;;;;20.58;11.90;;;7.40;51.60;;;;;;5068924;28;20284;-86
2022/03/14 00:52:30;;;;;;;14.73;11.05;;;7.40;51.10;;;;;;5068514;28;20674;-86
2022/03/14 00:54:57;;;;;;;18.00;12.55;;;7.40;51.70;;;;;;5068418;28;20708;-86
2022/03/14 00:57:24;;;;;;;17.65;12.73;;;7.60;50.80;;;;;;5068493;28;20242;-86
2022/03/14 00:59:51;;;;;;;17.48;11.95;;;7.60;50.80;;;;;;5068717;28;20207;-85
2022/03/14 01:02:18;;;;;;;15.93;11.25;;;7.60;50.50;;;;;;5068221;28;20683;-86
2022/03/14 01:04:52;;;;;;;16.48;12.15;;;8.00;58.20;;;;;;5056306;28;20286;-86
2022/03/14 01:07:19;;;;;;;18.00;12.35;;;7.70;50.60;;;;;;5068950;28;20215;-86
2022/03/14 01:09:47;;;;;;;15.65;10.95;;;7.80;50.50;;;;;;5068417;28;20195;-87
2022/03/14 01:12:15;;;;;;;15.40;12.05;;;7.80;50.40;;;;;;5068122;28;20580;-87
2022/03/14 01:14:43;;;;;;;18.98;12.95;;;7.90;50.30;;;;;;5068845;28;20274;-86
2022/03/14 01:17:11;;;;;;;19.02;13.15;;;8.00;50.60;;;;;;5068181;28;20203;-86
2022/03/14 01:19:38;;;;;;;18.77;12.80;;;8.00;51.40;;;;;;5068681;28;20207;-86
2022/03/14 01:22:10;;;;;;;18.02;13.60;;;8.10;52.50;;;;;;5068963;28;20222;-86
2022/03/14 01:24:39;;;;;;;19.95;13.20;;;8.20;53.80;;;;;;5068577;28;20198;-86
2022/03/14 01:27:07;;;;;;;23.48;14.70;;;8.30;55.00;;;;;;5068750;28;20269;-86
2022/03/14 01:29:35;;;;;;;19.17;13.00;;;8.40;55.70;;;;;;5068702;28;20689;-86
2022/03/14 01:32:03;;;;;;;23.73;13.82;;;8.50;56.80;;;;;;5068705;28;20200;-86
2022/03/14 01:34:30;;;;;;;23.90;15.10;;;8.50;59.10;;;;;;5069209;28;20199;-87
2022/03/14 01:36:57;;;;;;;20.42;16.33;;;8.70;61.90;;;;;;5068255;28;20203;-87
2022/03/14 01:39:26;;;;;;;18.30;14.40;;;8.60;62.50;;;;;;5068879;28;20207;-87
2022/03/14 01:41:55;;;;;;;22.65;16.08;;;8.70;65.60;;;;;;5068093;28;20758;-86
2022/03/14 01:44:22;;;;;;;22.98;14.95;;;9.00;67.40;;;;;;5069441;28;20207;-88
2022/03/14 01:46:49;;;;;;;21.52;14.25;;;8.80;68.20;;;;;;5068436;28;20779;-87
2022/03/14 01:49:16;;;;;;;20.80;15.40;;;8.80;68.10;;;;;;5069157;28;20204;-86
2022/03/14 01:51:44;;;;;;;18.98;14.15;;;8.80;67.40;;;;;;5068315;28;20197;-86
2022/03/14 01:54:11;;;;;;;17.83;14.88;;;8.70;66.60;;;;;;5068133;28;20231;-87
2022/03/14 01:56:41;;;;;;;19.63;14.60;;;8.80;66.90;;;;;;5068762;28;20213;-87
2022/03/14 01:59:08;;;;;;;22.08;15.10;;;9.40;82.00;;;;;;5068800;28;20639;-86
2022/03/14 02:01:35;;;;;;;20.58;15.40;;;;;;;;;;5068865;28;20247;-86
2022/03/14 02:04:03;;;;;;;16.45;13.55;;;8.70;64.20;;;;;;5057074;28;20683;-87
2022/03/14 02:06:30;;;;;;;22.08;15.32;;;8.80;81.80;;;;;;5065385;28;20216;-87
2022/03/14 02:08:57;;;;;;;20.30;14.85;;;8.90;67.50;;;;;;5067777;28;20200;-86
2022/03/14 02:11:26;;;;;;;15.57;12.45;;;8.70;61.80;;;;;;5067859;28;20207;-87
2022/03/14 02:13:55;;;;;;;18.73;14.15;;;8.50;79.40;;;;;;5071758;28;20231;-86
2022/03/14 02:16:22;;;;;;;18.10;13.93;;;8.70;64.30;;;;;;5072076;28;20204;-87
2022/03/14 02:18:49;;;;;;;18.55;14.38;;;8.80;61.30;;;;;;5055878;28;20706;-87
2022/03/14 02:21:18;;;;;;;21.03;13.83;;;8.70;62.40;;;;;;5069229;28;20200;-86
2022/03/14 02:23:45;;;;;;;17.27;13.63;;;8.70;62.50;;;;;;5068016;28;20650;-85
2022/03/14 02:26:13;;;;;;;17.42;15.40;;;8.70;63.40;;;;;;5071256;28;20284;-85
2022/03/14 02:28:40;;;;;;;21.00;15.23;;;8.70;63.40;;;;;;5071658;28;20294;-84
2022/03/14 02:31:08;;;;;;;19.13;13.43;;;8.70;64.20;;;;;;5071649;28;20227;-85
2022/03/14 02:33:35;;;;;;;15.43;12.35;;;8.60;64.80;;;;;;5071181;28;20221;-85
2022/03/14 02:36:03;;;;;;;14.75;11.52;;;8.60;65.40;;;;;;5070706;28;20212;-84
2022/03/14 02:38:31;;;;;;;13.75;11.10;;;8.60;67.00;;;;;;5060819;28;20228;-88
2022/03/14 02:41:00;;;;;;;12.73;10.48;;;8.70;68.60;;;;;;5062033;28;20198;-86
2022/03/14 02:43:27;;;;;;;11.68;9.35;;;8.70;68.80;;;;;;5067568;28;20213;-87
2022/03/14 02:45:54;;;;;;;10.73;8.95;;;8.80;72.10;;;;;;5072047;28;20202;-86
2022/03/14 02:48:23;;;;;;;11.70;9.13;;;8.70;77.80;;;;;;5070263;28;20274;-86
2022/03/14 02:50:53;;;;;;;11.07;8.82;;;8.50;96.00;;;;;;5072073;28;20649;-87
2022/03/14 02:53:20;;;;;;;13.88;9.25;;;8.70;85.80;;;;;;5072615;28;20222;-87
2022/03/14 02:55:49;;;;;;;10.45;8.00;;;8.30;99.90;;;;;;5072150;28;20206;-87
2022/03/14 02:58:16;;;;;;;8.43;7.25;;;8.40;93.80;;;;;;5071261;28;20196;-86
2022/03/14 03:00:43;;;;;;;10.40;8.63;;;8.30;96.50;;;;;;5071164;28;20214;-86
2022/03/14 03:03:10;;;;;;;10.23;7.47;;;8.20;98.80;;;;;;5066241;28;21336;-86
2022/03/14 03:05:43;;;;;;;10.93;8.15;;;8.10;99.90;;;;;;5068089;28;20199;-87
2022/03/14 03:08:10;;;;;;;11.63;7.50;;;8.10;99.90;;;;;;5071002;28;20202;-87
2022/03/14 03:10:37;;;;;;;10.38;8.32;;;8.10;99.90;;;;;;5070728;28;20294;-87
2022/03/14 03:13:05;;;;;;;12.88;8.68;;;8.00;99.90;;;;;;5070253;28;20307;-88
2022/03/14 03:15:35;;;;;;;13.23;8.63;;;7.80;99.90;;;;;;5050687;28;20198;-88
2022/03/14 03:18:02;;;;;;;10.25;7.47;;;7.90;99.90;;;;;;5063959;28;20641;-88
2022/03/14 03:20:29;;;;;;;10.60;7.68;;;7.90;99.90;;;;;;5070525;28;20224;-88
2022/03/14 03:22:56;;;;;;;12.40;8.73;;;7.90;99.90;;;;;;5069058;28;20201;-88
2022/03/14 03:25:23;;;;;;;11.60;9.45;;;7.90;99.90;;;;;;5069897;28;20653;-87
2022/03/14 03:27:50;;;;;;;9.98;7.60;;;7.90;99.90;;;;;;5070038;28;20238;-88
2022/03/14 03:30:18;;;;;;;11.35;8.40;;;7.90;99.90;;;;;;5069845;28;20238;-89
2022/03/14 03:32:45;;;;;;;12.98;9.13;;;7.90;99.90;;;;;;5070659;28;20268;-89
2022/03/14 03:35:12;;;;;;;13.43;10.75;;;7.90;99.90;;;;;;5070093;28;20194;-88
2022/03/14 03:37:39;;;;;;;14.48;11.80;;;8.00;99.90;;;;;;5070141;28;20755;-88
2022/03/14 03:40:07;;;;;;;17.42;13.32;;;8.00;99.90;;;;;;5065783;28;20200;-89
2022/03/14 03:42:34;;;;;;;16.95;11.30;;;8.00;99.90;;;;;;5055137;28;20192;-89
2022/03/14 03:45:01;;;;;;;13.63;10.80;;;7.90;99.90;;;;;;5069953;28;20691;-89
2022/03/14 03:47:29;;;;;;;15.82;9.80;;;7.80;99.90;;;;;;5069956;28;20211;-88
2022/03/14 03:49:57;;;;;;;13.55;10.32;;;7.90;99.90;;;;;;5069320;28;20849;-89
2022/03/14 03:52:24;;;;;;;9.80;8.25;;;7.90;99.90;;;;;;5070207;28;20577;-88
2022/03/14 03:54:51;;;;;;;10.15;8.55;;;7.90;99.90;;;;;;5069138;28;20223;-89
2022/03/14 03:57:18;;;;;;;11.70;9.40;;;7.70;99.90;;;;;;5069529;28;20211;-88
2022/03/14 03:59:45;;;;;;;10.25;8.30;;;7.80;99.90;;;;;;5069639;28;20295;-88
2022/03/14 04:02:12;;;;;;;9.93;8.05;;;7.90;99.90;;;;;;5069736;28;20229;-88
2022/03/14 04:04:40;;;;;;;12.90;8.25;;;7.80;99.90;;;;;;5066770;28;20231;-87
2022/03/14 04:07:08;;;;;;;9.27;7.00;;;7.80;99.90;;;;;;5069794;28;20235;-87
2022/03/14 04:09:35;;;;;;;8.25;6.88;;;7.80;99.90;;;;;;5070348;28;20208;-87
2022/03/14 04:12:02;;;;;;;7.15;5.18;;;7.70;99.90;;;;;;5070489;28;20210;-87
2022/03/14 04:14:29;;;;;;;6.53;5.20;;;7.60;99.90;;;;;;5071055;28;20223;-88
2022/03/14 04:16:58;;;;;;;4.80;4.30;;;7.60;99.90;;;;;;5070656;28;20199;-89
2022/03/14 04:19:25;;;;;;;7.90;6.43;;;;;;;;;;5071514;28;20812;-88
2022/03/14 04:21:54;;;;;;;6.03;5.28;;;7.60;99.90;;;;;;5070846;28;20231;-88
2022/03/14 04:24:21;;;;;;;7.78;4.60;;;8.40;99.90;;;;;;5071115;28;20604;-88
2022/03/14 04:26:49;;;;;;;6.50;4.25;;;7.60;99.90;;;;;;5068584;28;20669;-89
2022/03/14 04:29:16;;;;;;;4.53;3.60;;;7.60;99.90;;;;;;5069520;28;20596;-89
2022/03/14 04:31:43;;;;;;;6.88;3.58;;;7.60;99.90;;;;;;5070135;28;20254;-88
2022/03/14 04:34:10;;;;;;;4.47;3.70;;;7.50;99.90;;;;;;5069658;28;20215;-89
2022/03/14 04:36:37;;;;;;;3.95;2.70;;;7.20;99.90;;;;;;5073612;28;20273;-89
2022/03/14 04:39:06;;;;;;;3.45;2.58;;;7.40;99.90;;;;;;5069733;28;20269;-90
2022/03/14 04:41:36;;;;;;;2.33;2.13;;;7.40;99.90;;;;;;5069650;28;20210;-89
2022/03/14 04:44:03;;;;;;;2.25;2.05;;;7.40;99.90;;;;;;5070071;28;20566;-89
2022/03/14 04:46:30;;;;;;;3.10;2.00;;;7.30;99.90;;;;;;5069786;28;20661;-89
2022/03/14 04:48:58;;;;;;;1.90;1.70;;;7.50;99.90;;;;;;5070148;28;20214;-89
2022/03/14 04:51:25;;;;;;;1.95;1.85;;;7.30;99.90;;;;;;5070121;28;20207;-88
2022/03/14 04:53:52;;;;;;;1.90;1.70;;;7.10;99.90;;;;;;5069961;28;20227;-89
2022/03/14 04:56:21;;;;;;;2.10;1.90;;;8.30;99.90;;;;;;5069498;28;20282;-89
2022/03/14 04:58:48;;;;;;;1.70;1.60;;;7.90;99.90;;;;;;5069913;28;20548;-89
2022/03/14 05:01:15;;;;;;;1.75;1.45;;;7.20;99.90;;;;;;5069803;28;20195;-89
2022/03/14 05:03:42;;;;;;;1.58;1.48;;;7.20;99.90;;;;;;5069335;28;20187;-89
2022/03/14 05:06:09;;;;;;;1.42;1.30;;;6.90;99.90;;;;;;5069487;28;20238;-90
2022/03/14 05:08:36;;;;;;;1.80;1.70;;;8.40;99.90;;;;;;5069853;28;20633;-90
2022/03/14 05:11:04;;;;;;;1.85;1.70;;;6.80;99.90;;;;;;5069824;28;20207;-89
2022/03/14 05:13:32;;;;;;;1.88;1.65;;;7.50;99.90;;;;;;5069307;28;20248;-89
2022/03/14 05:15:59;;;;;;;1.42;1.33;;;;;;;;;;5069611;28;20256;-89
2022/03/14 05:18:26;;;;;;;1.65;1.50;;;7.10;99.90;;;;;;5068701;28;20688;-90
2022/03/14 05:20:53;;;;;;;1.40;1.30;;;7.30;99.90;;;;;;5069528;28;20211;-90
2022/03/14 05:23:20;;;;;;;1.55;1.45;;;7.80;99.90;;;;;;5069244;28;20203;-90
2022/03/14 05:25:48;;;;;;;1.35;1.25;;;;;;;;;;5069413;28;20203;-88
2022/03/14 05:28:15;;;;;;;1.45;1.35;;;7.00;99.90;;;;;;5069800;28;20211;-89
2022/03/14 05:30:43;;;;;;;1.63;1.52;;;7.00;99.90;;;;;;5069742;28;20207;-89
2022/03/14 05:33:10;;;;;;;1.60;1.48;;;7.70;99.90;;;;;;5068656;28;21114;-89
2022/03/14 05:35:38;;;;;;;1.40;1.30;;;;;;;;;;5068503;28;20234;-90
2022/03/14 05:38:05;;;;;;;1.52;1.10;;;6.90;99.90;;;;;;5068322;28;20203;-87
2022/03/14 05:40:32;;;;;;;1.30;1.20;;;6.90;99.90;;;;;;5067918;28;20670;-88
2022/03/14 05:42:59;;;;;;;1.17;1.17;;;6.90;99.90;;;;;;5067731;28;20647;-87
2022/03/14 05:45:26;;;;;;;2.67;1.23;;;6.90;99.90;;;;;;5067564;28;20667;-88
2022/03/14 05:47:54;;;;;;;1.40;1.30;;;7.00;99.90;;;;;;5071226;28;20207;-88
2022/03/14 05:50:22;;;;;;;1.98;1.50;;;6.90;99.90;;;;;;5072073;28;20256;-88
2022/03/14 05:52:49;;;;;;;1.35;1.25;;;7.00;99.90;;;;;;5072161;28;20235;-88
2022/03/14 05:55:16;;;;;;;1.23;1.15;;;7.00;99.90;;;;;;5071983;28;20288;-88
2022/03/14 05:57:43;;;;;;;1.70;1.45;;;7.00;99.90;;;;;;5073457;28;20203;-86
2022/03/14 06:00:12;;;;;;;1.95;1.55;;;7.10;99.90;;;;;;5073466;28;20686;-88
2022/03/14 06:02:39;;;;;;;1.70;1.60;;;6.90;99.90;;;;;;5070796;28;20234;-87
2022/03/14 06:05:08;;;;;;;4.60;3.33;;;6.80;99.90;;;;;;5071801;28;20210;-88
2022/03/14 06:07:35;;;;;;;4.50;3.40;;;6.90;99.90;;;;;;5059059;28;20234;-88
2022/03/14 06:10:02;;;;;;;2.65;1.85;;;6.80;99.90;;;;;;5064396;28;20234;-88
2022/03/14 06:12:30;;;;;;;2.50;2.30;;;6.80;99.90;;;;;;5067822;28;20218;-88
2022/03/14 06:15:03;;;;;;;1.67;1.58;;;6.70;99.90;;;;;;5064927;28;20230;-88
2022/03/14 06:17:31;;;;;;;3.10;1.80;;;6.80;99.90;;;;;;5062728;28;20710;-89
2022/03/14 06:19:58;;;;;;;4.47;2.15;;;6.70;99.90;;;;;;5056295;28;20417;-88
2022/03/14 06:22:26;;;;;;;2.65;2.45;;;6.70;99.90;;;;;;5058307;28;20265;-88
2022/03/14 06:24:53;;;;;;;2.00;1.80;;;6.60;99.90;;;;;;5062872;28;20196;-86
2022/03/14 06:27:22;;;;;;;2.20;1.95;;;6.60;99.90;;;;;;5059353;28;20671;-88
2022/03/14 06:29:50;;;;;;;1.70;1.60;;;6.70;99.90;;;;;;5061752;28;20942;-88
2022/03/14 06:32:17;;;;;;;2.10;1.88;;;6.70;99.90;;;;;;5063822;28;20196;-88
2022/03/14 06:34:44;;;;;;;1.70;1.60;;;6.70;99.90;;;;;;5068970;28;20250;-87
2022/03/14 06:37:11;;;;;;;3.38;1.45;;;6.60;99.90;;;;;;5037114;28;20325;-87
2022/03/14 06:39:40;;;;;;;1.65;1.52;;;6.60;99.90;;;;;;5062485;28;20684;-87
2022/03/14 06:42:10;;;;;;;1.63;1.52;;;6.70;99.90;;;;;;5060440;28;20256;-86
2022/03/14 06:44:38;;;;;;;1.60;1.30;;;6.60;99.90;;;;;;5068851;28;20199;-87
2022/03/14 06:47:07;;;;;;;1.70;1.60;;;6.80;99.90;;;;;;5061656;28;20575;-87
2022/03/14 06:49:35;;;;;;;2.50;1.88;;;6.60;99.90;;;;;;5050460;28;20215;-87
2022/03/14 06:52:02;;;;;;;1.17;1.08;;;6.50;99.90;;;;;;5067328;28;20191;-87
2022/03/14 06:54:29;;;;;;;1.30;1.20;;;7.20;99.90;;;;;;5070363;28;20242;-86
2022/03/14 06:57:13;;;;;;;1.25;1.15;;;6.50;99.90;;;;;;5063554;28;20303;-87
2022/03/14 06:59:40;;;;;;;3.88;1.42;;;6.50;99.90;;;;;;5059359;28;20192;-88
2022/03/14 07:02:07;;;;;;;1.85;1.30;;;6.60;99.90;;;;;;5061312;28;20219;-87
2022/03/14 07:04:48;;;;;;;2.65;1.50;;;6.90;99.90;;;;;;5063781;28;20200;-89
2022/03/14 07:07:25;;;;;;;3.00;1.90;;;6.70;99.90;;;;;;5066740;28;20742;-88
2022/03/14 07:09:52;;;;;;;1.10;1.10;;;6.90;99.90;;;;;;5064967;28;20260;-88
2022/03/14 07:12:20;;;;;;;1.45;0.95;;;6.80;99.90;;;;;;5061701;28;20208;-86
2022/03/14 07:14:47;;;;;;;2.60;1.40;;;7.00;99.90;;;;;;5059971;28;20211;-87
2022/03/14 07:17:14;;;;;;;2.45;1.60;;;7.10;99.90;;;;;;5059967;28;20728;-87
2022/03/14 07:19:45;;;;;;;1.75;1.17;;;7.20;99.90;;;;;;5057912;28;20250;-87
2022/03/14 07:22:17;;;;;;;2.10;1.50;;;7.30;99.90;;;;;;5058194;28;20206;-88
2022/03/14 07:24:45;;;;;;;1.20;1.10;;;7.30;99.90;;;;;;5057227;28;20684;-87
2022/03/14 07:27:44;;;;;;;1.80;1.33;;;7.40;99.90;;;;;;5060135;28;20208;-88
2022/03/14 07:30:24;;;;;;;1.33;1.23;;;7.40;99.90;;;;;;5057005;28;20210;-87
2022/03/14 07:36:11;;;;;;;1.38;1.00;;;7.90;99.90;;;;;;5060901;28;20837;-89
2022/03/14 07:38:37;;;;;;;2.78;0.90;;;7.50;99.90;;;;;;5065075;28;20219;-87
2022/03/14 07:41:04;;;;;;;1.40;1.08;;;7.50;99.90;;;;;;5060339;28;20866;-87
2022/03/14 07:43:31;;;;;;;1.00;0.90;;;7.60;99.90;;;;;;5058683;28;20207;-88
2022/03/14 07:46:01;;;;;;;0.95;0.90;;;7.60;99.90;;;;;;5057527;28;20224;-88
2022/03/14 07:48:28;;;;;;;1.70;0.45;;;7.70;99.90;;;;;;5056275;28;20314;-88
2022/03/14 07:51:36;;;;;;;0.90;0.90;;;7.70;99.90;;;;;;5062581;28;20200;-90
2022/03/14 07:54:04;;;;;;;1.48;0.63;;;7.70;99.90;;;;;;5057064;28;20208;-87
2022/03/14 07:56:31;;;;;;;1.02;0.80;;;7.70;99.90;;;;;;5050107;28;20313;-87
2022/03/14 07:58:58;;;;;;;1.13;0.60;;;7.90;99.90;;;;;;5057062;28;20284;-88
2022/03/14 08:01:26;;;;;;;3.63;0.77;;;8.00;99.90;;;;;;5057139;28;20260;-87
2022/03/14 08:03:53;;;;;;;0.90;0.90;;;7.90;99.30;;;;;;5057343;28;20199;-87
2022/03/14 08:06:24;;;;;;;1.55;0.80;;;8.20;99.90;;;;;;5058380;28;20200;-88
2022/03/14 08:09:00;;;;;;;0.82;0.82;;;8.00;99.90;;;;;;5063011;28;20950;-90
2022/03/14 08:11:28;;;;;;;1.70;0.70;;;8.30;99.00;;;;;;5057086;28;20207;-89
2022/03/14 08:14:01;;;;;;;0.93;0.75;;;8.30;99.90;;;;;;5057766;28;20203;-89
2022/03/14 08:16:29;;;;;;;2.38;0.80;;;8.20;97.80;;;;;;5053699;28;20215;-89
2022/03/14 08:18:56;;;;;;;1.10;1.00;;;8.20;97.30;;;;;;5060475;28;20214;-88
2022/03/14 08:21:23;;;;;;;3.22;1.13;;;8.20;97.80;;;;;;5058037;28;20204;-88
2022/03/14 08:23:51;;;;;;;1.40;1.10;;;8.00;96.70;;;;;;5061033;28;20282;-88
2022/03/14 08:26:18;;;;;;;0.80;0.80;;;7.90;96.00;;;;;;5060838;28;20688;-90
2022/03/14 08:28:45;;;;;;;2.17;0.98;;;8.10;96.90;;;;;;5057899;28;20290;-87
2022/03/14 08:31:14;;;;;;;2.35;1.02;;;8.60;96.60;;;;;;5058365;28;20197;-88
2022/03/14 08:33:44;;;;;;;2.38;1.33;;;8.50;96.80;;;;;;5059714;28;20290;-88
2022/03/14 08:36:11;;;;;;;1.50;1.07;;;8.80;95.90;;;;;;5016163;28;1154259;-88
2022/03/14 08:38:40;;;;;;;1.98;1.50;;;8.70;99.90;;;;;;5053891;28;20642;-89
2022/03/14 08:41:10;;;;;;;1.25;1.15;;;8.60;99.90;;;;;;5056882;28;20670;-89
2022/03/14 08:43:37;;;;;;;2.55;1.20;;;8.60;94.90;;;;;;5059433;28;20209;-89
2022/03/14 08:46:04;;;;;;;0.88;0.88;;;8.50;94.60;;;;;;5057982;28;20654;-89
2022/03/14 08:48:31;;;;;;;2.08;1.25;;;8.50;95.40;;;;;;5059679;28;20322;-88
2022/03/14 08:50:59;;;;;;;2.65;0.80;;;8.60;95.20;;;;;;5053370;28;20937;-89
2022/03/14 08:53:26;;;;;;;3.00;1.05;;;8.70;99.00;;;;;;5056970;28;20253;-88
2022/03/14 08:55:55;;;;;;;1.55;1.20;;;8.60;93.70;;;;;;5058681;28;20227;-86
2022/03/14 08:58:22;;;;;;;0.75;0.70;;;8.60;93.00;;;;;;5058384;28;20237;-88
2022/03/14 09:00:53;;;;;;;1.95;1.20;;;8.70;93.20;;;;;;5061254;28;20211;-89
2022/03/14 09:03:20;;;;;;;1.75;0.90;;;8.70;93.20;;;;;;5057839;28;20208;-88
2022/03/14 09:05:48;;;;;;;1.77;0.80;;;8.70;92.70;;;;;;5056433;28;20246;-88
2022/03/14 09:08:17;;;;;;;2.22;1.75;;;8.80;92.20;;;;;;5058023;28;20208;-89
2022/03/14 09:10:46;;;;;;;4.00;2.83;;;8.90;92.90;;;;;;5058339;28;20229;-88
2022/03/14 09:13:14;;;;;;;3.72;2.13;;;;;;;;;;5057190;28;20509;-90
2022/03/14 09:15:41;;;;;;;3.25;1.63;;;;;;;;;;5056880;28;20219;-87
2022/03/14 09:18:08;;;;;;;1.95;1.30;;;8.90;90.90;;;;;;5059313;28;20200;-89
2022/03/14 09:20:38;;;;;;;2.85;1.55;;;8.90;87.80;;;;;;5057507;28;20212;-89
2022/03/14 09:23:05;;;;;;;1.40;1.05;;;9.00;88.20;;;;;;5063245;28;20201;-87
2022/03/14 09:25:34;;;;;;;1.65;0.93;;;9.10;87.80;;;;;;5067535;28;20278;-86
2022/03/14 09:28:00;;;;;;;2.80;1.10;;;9.10;97.10;;;;;;5065727;28;20767;-86
2022/03/14 09:30:28;;;;;;;2.80;1.35;;;9.10;86.90;;;;;;5067120;28;20678;-87
2022/03/14 09:32:56;;;;;;;2.65;1.33;;;8.90;96.30;;;;;;5067827;28;20203;-86
2022/03/14 09:35:24;;;;;;;1.30;1.20;;;8.80;86.10;;;;;;5067540;28;20223;-86
2022/03/14 09:37:52;;;;;;;1.42;1.33;;;8.90;86.40;;;;;;5068190;28;20228;-86
2022/03/14 09:40:20;;;;;;;3.65;0.80;;;9.20;96.10;;;;;;5067023;28;20223;-86
2022/03/14 09:42:59;;;;;;;1.45;1.33;;;9.80;86.10;;;;;;5064211;28;20223;-86
2022/03/14 09:45:27;;;;;;;2.40;1.50;;;9.30;85.30;;;;;;5065456;28;20192;-87
2022/03/14 09:47:58;;;;;;;4.43;1.05;;;9.30;83.90;;;;;;5067389;28;20283;-86
2022/03/14 09:50:28;;;;;;;3.75;1.20;;;9.30;83.50;;;;;;5067736;28;20210;-86
2022/03/14 09:52:55;;;;;;;2.25;1.13;;;9.50;92.60;;;;;;5064598;28;20297;-87
2022/03/14 09:55:23;;;;;;;6.18;1.73;;;9.30;83.70;;;;;;5055292;28;20404;-86
2022/03/14 09:57:50;;;;;;;4.05;1.20;;;9.30;82.40;;;;;;5061341;28;20617;-86
2022/03/14 10:00:19;;;;;;;2.17;1.10;;;9.50;81.80;;;;;;5066511;28;20219;-85
2022/03/14 10:02:47;;;;;;;2.95;1.05;;;10.40;95.70;;;;;;5064359;28;20285;-86
2022/03/14 10:05:15;;;;;;;1.75;0.85;;;9.70;83.10;;;;;;5068174;28;20232;-85
2022/03/14 10:07:44;;;;;;;7.20;1.20;;;10.10;79.40;;;;;;5068595;28;20227;-86
2022/03/14 10:10:13;;;;;;;3.23;1.30;;;10.10;80.00;;;;;;5063518;28;20627;-86
2022/03/14 10:12:42;;;;;;;1.80;0.83;;;10.20;79.80;;;;;;5068050;28;20632;-86
2022/03/14 10:15:11;;;;;;;1.53;0.70;;;10.40;79.70;;;;;;5067992;28;20655;-86
2022/03/14 10:17:39;;;;;;;3.30;1.17;;;10.40;77.30;;;;;;5063972;28;20702;-87
2022/03/14 10:20:08;;;;;;;1.53;0.90;;;10.50;76.70;;;;;;5067303;28;20714;-89
2022/03/14 10:22:38;;;;;;;3.97;1.00;;;10.50;75.90;;;;;;5066425;28;20751;-88
2022/03/14 10:25:09;;;;;;;2.30;0.90;;;10.40;74.90;;;;;;5064857;28;20641;-88
2022/03/14 10:27:37;;;;;;;2.20;1.07;;;10.30;74.90;;;;;;5068812;28;20639;-88
2022/03/14 10:30:05;;;;;;;2.70;1.60;;;10.40;76.80;;;;;;5052754;28;20629;-88
2022/03/14 10:32:34;;;;;;;1.80;1.20;;;10.30;74.70;;;;;;5060590;28;20632;-88
2022/03/14 10:35:05;;;;;;;3.40;0.90;;;10.20;74.20;;;;;;5057782;28;20655;-89
2022/03/14 10:37:32;;;;;;;2.40;1.00;;;10.30;75.60;;;;;;5061405;28;20728;-88
2022/03/14 10:40:01;;;;;;;4.17;0.97;;;10.50;75.10;;;;;;5058048;28;20620;-88
2022/03/14 10:42:28;;;;;;;1.50;0.80;;;10.60;75.10;;;;;;5058538;28;20629;-88
2022/03/14 10:44:56;;;;;;;0.80;0.80;;;10.80;74.20;;;;;;5056733;28;20633;-88
2022/03/14 10:47:26;;;;;;;1.90;0.93;;;10.90;71.60;;;;;;5060520;28;20723;-89
2022/03/14 10:49:54;;;;;;;1.77;0.70;;;10.80;70.70;;;;;;5061621;28;20624;-88
2022/03/14 10:52:24;;;;;;;2.50;1.10;;;11.00;72.60;;;;;;5059472;28;20656;-89
2022/03/14 10:54:52;;;;;;;2.00;0.70;;;10.70;80.50;;;;;;5059820;28;20625;-88
2022/03/14 10:57:26;;;;;;;1.93;1.00;;;10.70;67.40;;;;;;5058383;28;20636;-89
2022/03/14 10:59:58;;;;;;;0.93;0.80;;;11.10;69.20;;;;;;5067770;28;20731;-89
2022/03/14 11:02:28;;;;;;;4.10;1.37;;;11.30;69.70;;;;;;5068569;28;20648;-89
2022/03/14 11:04:57;;;;;;;8.73;1.67;;;11.20;69.60;;;;;;5071929;28;21055;-89
2022/03/14 11:07:28;;;;;;;1.43;0.73;;;11.00;67.20;;;;;;5070718;28;20657;-89
2022/03/14 11:10:06;;;;;;;1.30;0.87;;;10.90;68.00;;;;;;5069849;28;21026;-89
2022/03/14 11:12:34;;;;;;;4.57;1.70;;;;;;;;;;5070073;28;20613;-88
2022/03/14 11:15:06;;;;;;;2.30;1.50;;;11.20;67.90;;;;;;5070141;28;20621;-89
2022/03/14 11:17:34;;;;;;;5.67;1.20;;;11.20;65.90;;;;;;5070304;28;20621;-89
2022/03/14 11:20:02;;;;;;;1.37;1.10;;;11.70;85.80;;;;;;5069601;28;20625;-89
2022/03/14 11:22:32;;;;;;;1.30;1.20;;;11.50;67.40;;;;;;5069793;28;20624;-89
2022/03/14 11:25:00;;;;;;;1.73;0.90;;;11.40;68.90;;;;;;5069835;28;20629;-89
2022/03/14 11:27:28;;;;;;;1.30;1.20;;;11.50;68.30;;;;;;5056219;28;21042;-90
2022/03/14 11:30:02;;;;;;;1.83;1.00;;;11.30;66.20;;;;;;5062562;28;20628;-89
2022/03/14 11:32:29;;;;;;;0.70;0.70;;;11.30;77.70;;;;;;5070823;28;20629;-90
2022/03/14 11:34:57;;;;;;;1.57;0.80;;;;;;;;;;5069496;28;20625;-89
2022/03/14 11:37:25;;;;;;;7.20;1.47;;;11.60;67.90;;;;;;5055470;28;20661;-89
2022/03/14 11:39:57;;;;;;;1.20;1.07;;;11.80;65.40;;;;;;5059436;28;21004;-90
2022/03/14 11:42:24;;;;;;;0.90;0.73;;;;;;;;;;5069470;28;20622;-89
2022/03/14 11:44:52;;;;;;;1.70;1.07;;;12.10;83.20;;;;;;5058525;28;20649;-90
2022/03/14 11:47:22;;;;;;;2.40;1.47;;;12.00;65.90;;;;;;5060732;28;20614;-89
2022/03/14 11:49:49;;;;;;;1.50;0.93;;;11.80;65.00;;;;;;5060846;28;20623;-89
2022/03/14 11:52:19;;;;;;;4.50;1.13;;;11.70;65.50;;;;;;5058494;28;20640;-89
2022/03/14 11:54:49;;;;;;;2.87;1.00;;;11.70;66.20;;;;;;5060350;28;20620;-89
2022/03/14 11:57:35;;;;;;;2.60;1.30;;;12.10;85.30;;;;;;5061070;28;20661;-89
2022/03/14 12:00:35;;;;;;;2.43;1.47;;;11.60;65.10;;;;;;5062741;28;21043;-89
2022/03/14 12:03:05;;;;;;;4.60;1.33;;;11.90;67.30;;;;;;5058817;28;21343;-88
2022/03/14 12:05:48;;;;;;;1.57;0.90;;;11.90;61.10;;;;;;5059828;28;20606;-89
2022/03/14 12:09:03;;;;;;;1.70;1.30;;;11.60;60.20;;;;;;5059568;28;20633;-89
2022/03/14 12:12:25;;;;;;;1.60;0.63;;;11.70;61.20;;;;;;5060208;28;20633;-91
2022/03/14 12:14:59;;;;;;;1.33;0.87;;;11.90;62.80;;;;;;5056686;28;20635;-89
2022/03/14 12:17:29;;;;;;;3.57;1.23;;;12.10;63.40;;;;;;5054288;28;20655;-89
2022/03/14 12:19:57;;;;;;;1.83;1.03;;;;;;;;;;5059751;28;21015;-89
2022/03/14 12:22:36;;;;;;;1.93;1.13;;;12.00;59.70;;;;;;5059144;28;20617;-89
2022/03/14 12:25:08;;;;;;;2.70;1.00;;;12.50;60.10;;;;;;5056772;28;20629;-89
2022/03/14 12:27:36;;;;;;;0.80;0.80;;;13.10;80.80;;;;;;5059024;28;20625;-90
2022/03/14 12:30:07;;;;;;;4.33;1.50;;;12.60;61.70;;;;;;5060175;28;20642;-90
2022/03/14 12:32:39;;;;;;;2.10;1.10;;;12.80;59.90;;;;;;5059235;28;20707;-90
2022/03/14 12:35:09;;;;;;;1.33;0.73;;;12.80;59.90;;;;;;5052578;28;21044;-89
2022/03/14 12:37:49;;;;;;;0.70;0.60;;;12.80;59.00;;;;;;5059471;28;20658;-90
2022/03/14 12:40:42;;;;;;;3.10;1.10;;;13.00;76.00;;;;;;5060392;28;20633;-89
2022/03/14 12:43:16;;;;;;;1.90;0.73;;;12.90;68.50;;;;;;5059492;28;20725;-87
2022/03/14 12:45:47;;;;;;;1.97;0.93;;;13.00;59.40;;;;;;5057751;28;20648;-87
2022/03/14 12:48:16;;;;;;;2.03;1.07;;;13.00;59.40;;;;;;5057313;28;20646;-87
2022/03/14 12:51:07;;;;;;;4.83;0.60;;;13.10;59.20;;;;;;5057173;28;20646;-89
2022/03/14 12:53:51;;;;;;;2.33;0.60;;;13.00;58.60;;;;;;5057057;28;20642;-90
2022/03/14 12:56:24;;;;;;;1.17;0.80;;;13.20;57.20;;;;;;5058627;28;20688;-90
2022/03/14 12:59:10;;;;;;;2.33;1.23;;;12.80;56.90;;;;;;5057786;28;20614;-89
2022/03/14 13:01:41;;;;;;;4.87;1.30;;;12.80;57.20;;;;;;5061174;28;20625;-89
2022/03/14 13:04:16;;;;;;;0.70;0.70;;;12.80;58.50;;;;;;5059534;28;20637;-89
2022/03/14 13:06:48;;;;;;;2.40;0.77;;;12.90;57.40;;;;;;5058464;28;20754;-90